sensor_id;sensor_type;location;lat;lon;timestamp;P1;durP1;ratioP1;P2;durP2;ratioP2
11488;SDS011;5801;50.804;12.638;2023-04-21T00:02:22;11.15;;;6.20;;
11488;SDS011;5801;50.804;12.638;2023-04-21T00:04:47;9.57;;;6.30;;
11488;SDS011;5801;50.804;12.638;2023-04-21T00:07:13;11.13;;;6.97;;
11488;SDS011;5801;50.804;12.638;2023-04-21T00:09:40;9.63;;;6.28;;
11488;SDS011;5801;50.804;12.638;2023-04-21T00:12:05;9.18;;;6.13;;
11488;SDS011;5801;50.804;12.638;2023-04-21T00:14:31;13.95;;;7.60;;
11488;SDS011;5801;50.804;12.638;2023-04-21T00:16:57;13.25;;;5.97;;
11488;SDS011;5801;50.804;12.638;2023-04-21T00:19:24;11.20;;;6.82;;
11488;SDS011;5801;50.804;12.638;2023-04-21T00:21:49;15.38;;;7.05;;
11488;SDS011;5801;50.804;12.638;2023-04-21T00:24:15;12.35;;;6.47;;
11488;SDS011;5801;50.804;12.638;2023-04-21T00:26:41;9.98;;;6.30;;
11488;SDS011;5801;50.804;12.638;2023-04-21T00:29:07;10.93;;;6.30;;
11488;SDS011;5801;50.804;12.638;2023-04-21T00:31:32;11.52;;;6.68;;
11488;SDS011;5801;50.804;12.638;2023-04-21T00:33:58;10.18;;;6.78;;
11488;SDS011;5801;50.804;12.638;2023-04-21T00:36:23;10.15;;;5.85;;
11488;SDS011;5801;50.804;12.638;2023-04-21T00:38:52;12.38;;;5.85;;
11488;SDS011;5801;50.804;12.638;2023-04-21T00:41:18;14.45;;;6.53;;
11488;SDS011;5801;50.804;12.638;2023-04-21T00:44:00;10.80;;;5.40;;
11488;SDS011;5801;50.804;12.638;2023-04-21T00:46:27;10.77;;;6.38;;
11488;SDS011;5801;50.804;12.638;2023-04-21T00:48:53;11.80;;;6.78;;
11488;SDS011;5801;50.804;12.638;2023-04-21T00:51:18;9.85;;;6.25;;
11488;SDS011;5801;50.804;12.638;2023-04-21T00:53:44;11.32;;;6.10;;
11488;SDS011;5801;50.804;12.638;2023-04-21T00:56:10;12.75;;;6.30;;
11488;SDS011;5801;50.804;12.638;2023-04-21T00:58:37;11.48;;;6.35;;
11488;SDS011;5801;50.804;12.638;2023-04-21T01:01:06;9.73;;;6.63;;
11488;SDS011;5801;50.804;12.638;2023-04-21T01:03:32;11.25;;;6.38;;
11488;SDS011;5801;50.804;12.638;2023-04-21T01:05:58;12.82;;;6.50;;
11488;SDS011;5801;50.804;12.638;2023-04-21T01:08:24;11.60;;;6.43;;
11488;SDS011;5801;50.804;12.638;2023-04-21T01:10:51;15.35;;;7.05;;
11488;SDS011;5801;50.804;12.638;2023-04-21T01:13:18;12.60;;;6.38;;
11488;SDS011;5801;50.804;12.638;2023-04-21T01:15:44;13.60;;;7.93;;
11488;SDS011;5801;50.804;12.638;2023-04-21T01:18:10;11.68;;;6.47;;
11488;SDS011;5801;50.804;12.638;2023-04-21T01:20:36;16.10;;;7.70;;
11488;SDS011;5801;50.804;12.638;2023-04-21T01:23:03;11.07;;;6.35;;
11488;SDS011;5801;50.804;12.638;2023-04-21T01:25:28;12.20;;;7.40;;
11488;SDS011;5801;50.804;12.638;2023-04-21T01:27:54;13.65;;;5.82;;
11488;SDS011;5801;50.804;12.638;2023-04-21T01:30:20;13.02;;;7.05;;
11488;SDS011;5801;50.804;12.638;2023-04-21T01:32:45;12.52;;;6.75;;
11488;SDS011;5801;50.804;12.638;2023-04-21T01:35:11;13.27;;;6.25;;
11488;SDS011;5801;50.804;12.638;2023-04-21T01:37:37;13.38;;;6.55;;
11488;SDS011;5801;50.804;12.638;2023-04-21T01:40:04;18.70;;;6.47;;
11488;SDS011;5801;50.804;12.638;2023-04-21T01:42:31;12.10;;;5.85;;
11488;SDS011;5801;50.804;12.638;2023-04-21T01:44:58;11.25;;;5.82;;
11488;SDS011;5801;50.804;12.638;2023-04-21T01:47:24;16.73;;;6.50;;
11488;SDS011;5801;50.804;12.638;2023-04-21T01:49:50;9.00;;;5.50;;
11488;SDS011;5801;50.804;12.638;2023-04-21T01:52:16;12.32;;;5.60;;
11488;SDS011;5801;50.804;12.638;2023-04-21T01:54:41;11.10;;;5.78;;
11488;SDS011;5801;50.804;12.638;2023-04-21T01:57:07;13.05;;;5.97;;
11488;SDS011;5801;50.804;12.638;2023-04-21T01:59:33;9.98;;;6.40;;
11488;SDS011;5801;50.804;12.638;2023-04-21T02:01:58;11.88;;;7.25;;
11488;SDS011;5801;50.804;12.638;2023-04-21T02:04:24;9.90;;;5.93;;
11488;SDS011;5801;50.804;12.638;2023-04-21T02:06:50;16.83;;;6.25;;
11488;SDS011;5801;50.804;12.638;2023-04-21T02:09:15;10.70;;;6.85;;
11488;SDS011;5801;50.804;12.638;2023-04-21T02:11:41;11.82;;;5.50;;
11488;SDS011;5801;50.804;12.638;2023-04-21T02:14:07;9.18;;;6.05;;
11488;SDS011;5801;50.804;12.638;2023-04-21T02:16:33;12.82;;;6.22;;
11488;SDS011;5801;50.804;12.638;2023-04-21T02:18:59;11.38;;;5.15;;
11488;SDS011;5801;50.804;12.638;2023-04-21T02:21:26;9.85;;;5.38;;
11488;SDS011;5801;50.804;12.638;2023-04-21T02:23:51;11.68;;;6.47;;
11488;SDS011;5801;50.804;12.638;2023-04-21T02:26:17;17.67;;;6.00;;
11488;SDS011;5801;50.804;12.638;2023-04-21T02:28:44;7.65;;;5.63;;
11488;SDS011;5801;50.804;12.638;2023-04-21T02:31:10;9.93;;;5.80;;
11488;SDS011;5801;50.804;12.638;2023-04-21T02:33:36;10.40;;;5.47;;
11488;SDS011;5801;50.804;12.638;2023-04-21T02:36:02;9.73;;;4.97;;
11488;SDS011;5801;50.804;12.638;2023-04-21T02:38:28;9.00;;;5.65;;
11488;SDS011;5801;50.804;12.638;2023-04-21T02:40:55;10.80;;;6.05;;
11488;SDS011;5801;50.804;12.638;2023-04-21T02:43:20;10.30;;;6.32;;
11488;SDS011;5801;50.804;12.638;2023-04-21T02:45:46;11.70;;;5.75;;
11488;SDS011;5801;50.804;12.638;2023-04-21T02:48:12;8.48;;;5.43;;
11488;SDS011;5801;50.804;12.638;2023-04-21T02:50:38;6.85;;;4.97;;
11488;SDS011;5801;50.804;12.638;2023-04-21T02:53:04;11.18;;;5.32;;
11488;SDS011;5801;50.804;12.638;2023-04-21T02:55:30;10.75;;;5.50;;
11488;SDS011;5801;50.804;12.638;2023-04-21T02:57:55;11.73;;;5.32;;
11488;SDS011;5801;50.804;12.638;2023-04-21T03:00:21;10.65;;;5.40;;
11488;SDS011;5801;50.804;12.638;2023-04-21T03:02:47;12.48;;;5.43;;
11488;SDS011;5801;50.804;12.638;2023-04-21T03:05:13;5.88;;;4.50;;
11488;SDS011;5801;50.804;12.638;2023-04-21T03:07:39;7.22;;;4.90;;
11488;SDS011;5801;50.804;12.638;2023-04-21T03:10:05;12.82;;;5.72;;
11488;SDS011;5801;50.804;12.638;2023-04-21T03:12:31;6.25;;;4.63;;
11488;SDS011;5801;50.804;12.638;2023-04-21T03:14:56;10.25;;;5.55;;
11488;SDS011;5801;50.804;12.638;2023-04-21T03:17:22;12.90;;;5.75;;
11488;SDS011;5801;50.804;12.638;2023-04-21T03:19:48;12.23;;;5.18;;
11488;SDS011;5801;50.804;12.638;2023-04-21T03:22:14;12.60;;;5.03;;
11488;SDS011;5801;50.804;12.638;2023-04-21T03:24:40;9.82;;;5.63;;
11488;SDS011;5801;50.804;12.638;2023-04-21T03:27:06;9.00;;;5.20;;
11488;SDS011;5801;50.804;12.638;2023-04-21T03:29:31;9.85;;;5.13;;
11488;SDS011;5801;50.804;12.638;2023-04-21T03:31:57;12.68;;;4.80;;
11488;SDS011;5801;50.804;12.638;2023-04-21T03:34:23;12.30;;;5.30;;
11488;SDS011;5801;50.804;12.638;2023-04-21T03:36:49;12.73;;;4.68;;
11488;SDS011;5801;50.804;12.638;2023-04-21T03:39:14;9.75;;;4.80;;
11488;SDS011;5801;50.804;12.638;2023-04-21T03:41:40;8.25;;;4.28;;
11488;SDS011;5801;50.804;12.638;2023-04-21T03:44:05;11.18;;;5.15;;
11488;SDS011;5801;50.804;12.638;2023-04-21T03:46:31;9.05;;;4.65;;
11488;SDS011;5801;50.804;12.638;2023-04-21T03:48:57;8.13;;;5.25;;
11488;SDS011;5801;50.804;12.638;2023-04-21T03:51:22;8.45;;;4.88;;
11488;SDS011;5801;50.804;12.638;2023-04-21T03:53:48;9.27;;;5.35;;
11488;SDS011;5801;50.804;12.638;2023-04-21T03:56:14;11.73;;;4.85;;
11488;SDS011;5801;50.804;12.638;2023-04-21T03:58:40;12.15;;;5.43;;
11488;SDS011;5801;50.804;12.638;2023-04-21T04:01:06;9.07;;;4.97;;
11488;SDS011;5801;50.804;12.638;2023-04-21T04:03:32;15.93;;;5.68;;
11488;SDS011;5801;50.804;12.638;2023-04-21T04:05:58;13.13;;;5.88;;
11488;SDS011;5801;50.804;12.638;2023-04-21T04:08:23;12.70;;;6.35;;
11488;SDS011;5801;50.804;12.638;2023-04-21T04:10:49;10.90;;;5.63;;
11488;SDS011;5801;50.804;12.638;2023-04-21T04:13:15;10.70;;;5.45;;
11488;SDS011;5801;50.804;12.638;2023-04-21T04:15:41;10.60;;;5.30;;
11488;SDS011;5801;50.804;12.638;2023-04-21T04:18:07;7.95;;;5.03;;
11488;SDS011;5801;50.804;12.638;2023-04-21T04:20:32;11.93;;;4.70;;
11488;SDS011;5801;50.804;12.638;2023-04-21T04:22:58;7.75;;;5.03;;
11488;SDS011;5801;50.804;12.638;2023-04-21T04:25:24;7.38;;;5.13;;
11488;SDS011;5801;50.804;12.638;2023-04-21T04:27:50;13.48;;;5.80;;
11488;SDS011;5801;50.804;12.638;2023-04-21T04:30:17;9.15;;;6.57;;
11488;SDS011;5801;50.804;12.638;2023-04-21T04:32:43;13.32;;;8.15;;
11488;SDS011;5801;50.804;12.638;2023-04-21T04:35:09;12.63;;;6.13;;
11488;SDS011;5801;50.804;12.638;2023-04-21T04:37:35;17.50;;;8.15;;
11488;SDS011;5801;50.804;12.638;2023-04-21T04:40:01;13.75;;;6.68;;
11488;SDS011;5801;50.804;12.638;2023-04-21T04:42:29;23.35;;;6.97;;
11488;SDS011;5801;50.804;12.638;2023-04-21T04:44:57;14.15;;;7.90;;
11488;SDS011;5801;50.804;12.638;2023-04-21T04:47:23;14.98;;;6.30;;
11488;SDS011;5801;50.804;12.638;2023-04-21T04:49:49;20.60;;;10.43;;
11488;SDS011;5801;50.804;12.638;2023-04-21T04:52:15;15.25;;;7.88;;
11488;SDS011;5801;50.804;12.638;2023-04-21T04:54:40;14.57;;;8.15;;
11488;SDS011;5801;50.804;12.638;2023-04-21T04:57:06;26.92;;;13.10;;
11488;SDS011;5801;50.804;12.638;2023-04-21T04:59:32;39.17;;;16.48;;
11488;SDS011;5801;50.804;12.638;2023-04-21T05:01:58;22.20;;;9.93;;
11488;SDS011;5801;50.804;12.638;2023-04-21T05:04:24;16.25;;;7.38;;
11488;SDS011;5801;50.804;12.638;2023-04-21T05:06:50;28.67;;;12.57;;
11488;SDS011;5801;50.804;12.638;2023-04-21T05:09:16;14.65;;;7.05;;
11488;SDS011;5801;50.804;12.638;2023-04-21T05:11:41;23.88;;;9.45;;
11488;SDS011;5801;50.804;12.638;2023-04-21T05:14:07;9.57;;;5.15;;
11488;SDS011;5801;50.804;12.638;2023-04-21T05:16:33;6.65;;;4.93;;
11488;SDS011;5801;50.804;12.638;2023-04-21T05:19:02;9.77;;;4.45;;
11488;SDS011;5801;50.804;12.638;2023-04-21T05:21:28;8.25;;;4.28;;
11488;SDS011;5801;50.804;12.638;2023-04-21T05:23:55;8.32;;;4.45;;
11488;SDS011;5801;50.804;12.638;2023-04-21T05:26:21;10.88;;;4.10;;
11488;SDS011;5801;50.804;12.638;2023-04-21T05:28:47;10.10;;;4.32;;
11488;SDS011;5801;50.804;12.638;2023-04-21T05:31:13;7.07;;;4.30;;
11488;SDS011;5801;50.804;12.638;2023-04-21T05:33:38;9.55;;;4.22;;
11488;SDS011;5801;50.804;12.638;2023-04-21T05:36:07;8.23;;;4.15;;
11488;SDS011;5801;50.804;12.638;2023-04-21T05:38:34;8.00;;;4.22;;
11488;SDS011;5801;50.804;12.638;2023-04-21T05:41:02;8.55;;;4.03;;
11488;SDS011;5801;50.804;12.638;2023-04-21T05:43:28;6.75;;;3.80;;
11488;SDS011;5801;50.804;12.638;2023-04-21T05:45:57;10.32;;;4.05;;
11488;SDS011;5801;50.804;12.638;2023-04-21T05:48:23;9.63;;;3.75;;
11488;SDS011;5801;50.804;12.638;2023-04-21T05:50:48;7.50;;;3.80;;
11488;SDS011;5801;50.804;12.638;2023-04-21T05:53:14;17.95;;;4.00;;
11488;SDS011;5801;50.804;12.638;2023-04-21T05:55:39;7.53;;;4.00;;
11488;SDS011;5801;50.804;12.638;2023-04-21T05:58:05;8.57;;;4.40;;
11488;SDS011;5801;50.804;12.638;2023-04-21T06:00:30;10.60;;;4.20;;
11488;SDS011;5801;50.804;12.638;2023-04-21T06:02:56;5.43;;;3.45;;
11488;SDS011;5801;50.804;12.638;2023-04-21T06:05:21;9.73;;;4.53;;
11488;SDS011;5801;50.804;12.638;2023-04-21T06:07:47;7.15;;;4.28;;
11488;SDS011;5801;50.804;12.638;2023-04-21T06:10:12;8.68;;;4.30;;
11488;SDS011;5801;50.804;12.638;2023-04-21T06:12:38;9.30;;;3.88;;
11488;SDS011;5801;50.804;12.638;2023-04-21T06:15:04;10.10;;;3.97;;
11488;SDS011;5801;50.804;12.638;2023-04-21T06:17:30;7.05;;;3.85;;
11488;SDS011;5801;50.804;12.638;2023-04-21T06:19:56;10.70;;;3.55;;
11488;SDS011;5801;50.804;12.638;2023-04-21T06:22:22;6.47;;;3.85;;
11488;SDS011;5801;50.804;12.638;2023-04-21T06:24:47;8.93;;;3.40;;
11488;SDS011;5801;50.804;12.638;2023-04-21T06:27:13;4.88;;;3.05;;
11488;SDS011;5801;50.804;12.638;2023-04-21T06:29:39;13.13;;;3.45;;
11488;SDS011;5801;50.804;12.638;2023-04-21T06:32:06;7.90;;;3.20;;
11488;SDS011;5801;50.804;12.638;2023-04-21T06:34:32;10.38;;;3.00;;
11488;SDS011;5801;50.804;12.638;2023-04-21T06:36:58;4.40;;;3.13;;
11488;SDS011;5801;50.804;12.638;2023-04-21T06:39:23;5.03;;;3.38;;
11488;SDS011;5801;50.804;12.638;2023-04-21T06:41:49;5.30;;;3.13;;
11488;SDS011;5801;50.804;12.638;2023-04-21T06:44:14;4.70;;;2.95;;
11488;SDS011;5801;50.804;12.638;2023-04-21T06:46:40;8.68;;;5.57;;
11488;SDS011;5801;50.804;12.638;2023-04-21T06:49:06;8.43;;;3.83;;
11488;SDS011;5801;50.804;12.638;2023-04-21T06:51:35;8.02;;;4.60;;
11488;SDS011;5801;50.804;12.638;2023-04-21T06:54:01;8.40;;;3.70;;
11488;SDS011;5801;50.804;12.638;2023-04-21T06:56:27;7.47;;;3.00;;
11488;SDS011;5801;50.804;12.638;2023-04-21T06:58:53;6.78;;;3.38;;
11488;SDS011;5801;50.804;12.638;2023-04-21T07:01:19;6.55;;;4.63;;
11488;SDS011;5801;50.804;12.638;2023-04-21T07:03:45;11.57;;;3.83;;
11488;SDS011;5801;50.804;12.638;2023-04-21T07:06:10;5.13;;;3.42;;
11488;SDS011;5801;50.804;12.638;2023-04-21T07:08:36;10.80;;;3.78;;
11488;SDS011;5801;50.804;12.638;2023-04-21T07:11:02;11.43;;;3.55;;
11488;SDS011;5801;50.804;12.638;2023-04-21T07:13:27;6.15;;;3.35;;
11488;SDS011;5801;50.804;12.638;2023-04-21T07:15:53;7.15;;;4.32;;
11488;SDS011;5801;50.804;12.638;2023-04-21T07:18:19;6.72;;;2.75;;
11488;SDS011;5801;50.804;12.638;2023-04-21T07:20:44;8.93;;;3.83;;
11488;SDS011;5801;50.804;12.638;2023-04-21T07:23:10;7.57;;;3.40;;
11488;SDS011;5801;50.804;12.638;2023-04-21T07:25:35;10.07;;;2.60;;
11488;SDS011;5801;50.804;12.638;2023-04-21T07:28:01;4.32;;;2.88;;
11488;SDS011;5801;50.804;12.638;2023-04-21T07:30:27;6.05;;;3.22;;
11488;SDS011;5801;50.804;12.638;2023-04-21T07:32:53;5.75;;;3.10;;
11488;SDS011;5801;50.804;12.638;2023-04-21T07:35:19;5.78;;;3.17;;
11488;SDS011;5801;50.804;12.638;2023-04-21T07:37:44;3.85;;;3.05;;
11488;SDS011;5801;50.804;12.638;2023-04-21T07:40:10;5.65;;;3.50;;
11488;SDS011;5801;50.804;12.638;2023-04-21T07:42:36;8.77;;;3.00;;
11488;SDS011;5801;50.804;12.638;2023-04-21T07:45:02;7.85;;;3.72;;
11488;SDS011;5801;50.804;12.638;2023-04-21T07:47:28;3.58;;;3.20;;
11488;SDS011;5801;50.804;12.638;2023-04-21T07:49:53;5.97;;;3.35;;
11488;SDS011;5801;50.804;12.638;2023-04-21T07:52:19;4.63;;;2.90;;
11488;SDS011;5801;50.804;12.638;2023-04-21T07:54:44;6.97;;;3.35;;
11488;SDS011;5801;50.804;12.638;2023-04-21T07:57:10;5.68;;;2.95;;
11488;SDS011;5801;50.804;12.638;2023-04-21T07:59:35;7.85;;;3.22;;
11488;SDS011;5801;50.804;12.638;2023-04-21T08:02:01;7.80;;;3.28;;
11488;SDS011;5801;50.804;12.638;2023-04-21T08:04:26;8.45;;;3.13;;
11488;SDS011;5801;50.804;12.638;2023-04-21T08:06:52;5.60;;;2.95;;
11488;SDS011;5801;50.804;12.638;2023-04-21T08:09:17;5.05;;;2.60;;
11488;SDS011;5801;50.804;12.638;2023-04-21T08:11:43;6.05;;;3.00;;
11488;SDS011;5801;50.804;12.638;2023-04-21T08:14:08;9.50;;;3.13;;
11488;SDS011;5801;50.804;12.638;2023-04-21T08:16:36;7.40;;;3.10;;
11488;SDS011;5801;50.804;12.638;2023-04-21T08:19:02;12.13;;;2.90;;
11488;SDS011;5801;50.804;12.638;2023-04-21T08:21:28;8.18;;;3.45;;
11488;SDS011;5801;50.804;12.638;2023-04-21T08:23:54;8.75;;;3.40;;
11488;SDS011;5801;50.804;12.638;2023-04-21T08:26:20;4.38;;;3.03;;
11488;SDS011;5801;50.804;12.638;2023-04-21T08:28:47;5.35;;;3.22;;
11488;SDS011;5801;50.804;12.638;2023-04-21T08:31:13;6.22;;;2.83;;
11488;SDS011;5801;50.804;12.638;2023-04-21T08:33:39;8.57;;;2.85;;
11488;SDS011;5801;50.804;12.638;2023-04-21T08:36:05;5.32;;;3.25;;
11488;SDS011;5801;50.804;12.638;2023-04-21T08:38:31;4.68;;;3.22;;
11488;SDS011;5801;50.804;12.638;2023-04-21T08:40:57;6.60;;;3.45;;
11488;SDS011;5801;50.804;12.638;2023-04-21T08:43:23;3.58;;;3.13;;
11488;SDS011;5801;50.804;12.638;2023-04-21T08:45:49;8.77;;;3.65;;
11488;SDS011;5801;50.804;12.638;2023-04-21T08:48:18;15.98;;;3.85;;
11488;SDS011;5801;50.804;12.638;2023-04-21T08:50:45;4.07;;;3.13;;
11488;SDS011;5801;50.804;12.638;2023-04-21T08:53:12;5.65;;;3.00;;
11488;SDS011;5801;50.804;12.638;2023-04-21T08:55:39;9.32;;;3.40;;
11488;SDS011;5801;50.804;12.638;2023-04-21T08:58:05;5.32;;;3.40;;
11488;SDS011;5801;50.804;12.638;2023-04-21T09:00:33;5.28;;;3.60;;
11488;SDS011;5801;50.804;12.638;2023-04-21T09:03:01;7.90;;;4.03;;
11488;SDS011;5801;50.804;12.638;2023-04-21T09:05:29;4.80;;;3.42;;
11488;SDS011;5801;50.804;12.638;2023-04-21T09:08:06;5.22;;;3.30;;
11488;SDS011;5801;50.804;12.638;2023-04-21T09:10:33;5.68;;;3.80;;
11488;SDS011;5801;50.804;12.638;2023-04-21T09:13:05;8.35;;;3.33;;
11488;SDS011;5801;50.804;12.638;2023-04-21T09:15:37;5.07;;;3.63;;
11488;SDS011;5801;50.804;12.638;2023-04-21T09:18:04;5.93;;;3.42;;
11488;SDS011;5801;50.804;12.638;2023-04-21T09:20:39;9.07;;;3.42;;
11488;SDS011;5801;50.804;12.638;2023-04-21T09:23:07;5.15;;;3.25;;
11488;SDS011;5801;50.804;12.638;2023-04-21T09:25:33;5.25;;;3.10;;
11488;SDS011;5801;50.804;12.638;2023-04-21T09:27:59;5.45;;;3.00;;
11488;SDS011;5801;50.804;12.638;2023-04-21T09:30:25;5.07;;;3.50;;
11488;SDS011;5801;50.804;12.638;2023-04-21T09:32:51;10.10;;;3.40;;
11488;SDS011;5801;50.804;12.638;2023-04-21T09:35:21;5.72;;;3.60;;
11488;SDS011;5801;50.804;12.638;2023-04-21T09:37:48;7.50;;;2.80;;
11488;SDS011;5801;50.804;12.638;2023-04-21T09:40:16;4.63;;;2.97;;
11488;SDS011;5801;50.804;12.638;2023-04-21T09:42:42;7.00;;;3.15;;
11488;SDS011;5801;50.804;12.638;2023-04-21T09:45:08;5.93;;;3.08;;
11488;SDS011;5801;50.804;12.638;2023-04-21T09:47:38;4.82;;;3.20;;
11488;SDS011;5801;50.804;12.638;2023-04-21T09:50:05;5.05;;;3.20;;
11488;SDS011;5801;50.804;12.638;2023-04-21T09:52:32;7.70;;;3.13;;
11488;SDS011;5801;50.804;12.638;2023-04-21T09:55:00;5.75;;;3.53;;
11488;SDS011;5801;50.804;12.638;2023-04-21T09:57:31;3.47;;;3.13;;
11488;SDS011;5801;50.804;12.638;2023-04-21T10:00:06;4.05;;;3.22;;
11488;SDS011;5801;50.804;12.638;2023-04-21T10:02:34;5.63;;;3.70;;
11488;SDS011;5801;50.804;12.638;2023-04-21T10:05:06;6.30;;;3.28;;
11488;SDS011;5801;50.804;12.638;2023-04-21T10:07:33;9.15;;;3.45;;
11488;SDS011;5801;50.804;12.638;2023-04-21T10:09:59;6.03;;;3.42;;
11488;SDS011;5801;50.804;12.638;2023-04-21T10:12:25;6.68;;;3.15;;
11488;SDS011;5801;50.804;12.638;2023-04-21T10:14:52;6.20;;;3.40;;
11488;SDS011;5801;50.804;12.638;2023-04-21T10:17:20;4.53;;;2.88;;
11488;SDS011;5801;50.804;12.638;2023-04-21T10:19:52;4.95;;;3.33;;
11488;SDS011;5801;50.804;12.638;2023-04-21T10:24:59;4.43;;;2.65;;
11488;SDS011;5801;50.804;12.638;2023-04-21T10:27:36;6.50;;;3.55;;
11488;SDS011;5801;50.804;12.638;2023-04-21T10:30:17;6.43;;;3.17;;
11488;SDS011;5801;50.804;12.638;2023-04-21T10:32:47;3.85;;;3.25;;
11488;SDS011;5801;50.804;12.638;2023-04-21T10:35:14;5.03;;;3.65;;
11488;SDS011;5801;50.804;12.638;2023-04-21T10:37:45;4.82;;;3.03;;
11488;SDS011;5801;50.804;12.638;2023-04-21T10:40:32;4.22;;;2.85;;
11488;SDS011;5801;50.804;12.638;2023-04-21T10:43:00;4.28;;;2.95;;
11488;SDS011;5801;50.804;12.638;2023-04-21T10:45:26;4.40;;;3.17;;
11488;SDS011;5801;50.804;12.638;2023-04-21T10:47:52;3.38;;;3.03;;
11488;SDS011;5801;50.804;12.638;2023-04-21T10:50:19;4.22;;;2.90;;
11488;SDS011;5801;50.804;12.638;2023-04-21T10:52:54;5.30;;;2.75;;
11488;SDS011;5801;50.804;12.638;2023-04-21T10:55:21;7.32;;;3.45;;
11488;SDS011;5801;50.804;12.638;2023-04-21T10:57:51;8.35;;;2.92;;
11488;SDS011;5801;50.804;12.638;2023-04-21T11:00:20;3.40;;;2.55;;
11488;SDS011;5801;50.804;12.638;2023-04-21T11:02:54;5.68;;;3.30;;
11488;SDS011;5801;50.804;12.638;2023-04-21T11:05:37;3.65;;;2.95;;
11488;SDS011;5801;50.804;12.638;2023-04-21T11:08:08;5.88;;;3.00;;
11488;SDS011;5801;50.804;12.638;2023-04-21T11:10:45;5.65;;;2.63;;
11488;SDS011;5801;50.804;12.638;2023-04-21T11:13:12;3.72;;;2.72;;
11488;SDS011;5801;50.804;12.638;2023-04-21T11:15:39;4.85;;;2.72;;
11488;SDS011;5801;50.804;12.638;2023-04-21T11:18:04;2.78;;;2.33;;
11488;SDS011;5801;50.804;12.638;2023-04-21T11:20:31;7.15;;;2.90;;
11488;SDS011;5801;50.804;12.638;2023-04-21T11:22:57;7.45;;;2.90;;
11488;SDS011;5801;50.804;12.638;2023-04-21T11:25:22;4.20;;;2.90;;
11488;SDS011;5801;50.804;12.638;2023-04-21T11:27:55;3.70;;;2.72;;
11488;SDS011;5801;50.804;12.638;2023-04-21T11:30:29;3.13;;;2.55;;
11488;SDS011;5801;50.804;12.638;2023-04-21T11:32:58;4.03;;;2.97;;
11488;SDS011;5801;50.804;12.638;2023-04-21T11:35:24;4.55;;;2.63;;
11488;SDS011;5801;50.804;12.638;2023-04-21T11:37:49;4.43;;;2.78;;
11488;SDS011;5801;50.804;12.638;2023-04-21T11:40:18;3.15;;;2.42;;
11488;SDS011;5801;50.804;12.638;2023-04-21T11:42:44;12.10;;;2.90;;
11488;SDS011;5801;50.804;12.638;2023-04-21T11:45:16;4.93;;;3.72;;
11488;SDS011;5801;50.804;12.638;2023-04-21T11:47:43;11.98;;;3.72;;
11488;SDS011;5801;50.804;12.638;2023-04-21T11:50:09;7.50;;;4.20;;
11488;SDS011;5801;50.804;12.638;2023-04-21T11:52:35;4.60;;;3.45;;
11488;SDS011;5801;50.804;12.638;2023-04-21T11:57:43;4.22;;;3.42;;
11488;SDS011;5801;50.804;12.638;2023-04-21T12:00:10;7.70;;;3.65;;
11488;SDS011;5801;50.804;12.638;2023-04-21T12:02:39;6.63;;;3.70;;
11488;SDS011;5801;50.804;12.638;2023-04-21T12:05:06;5.38;;;3.80;;
11488;SDS011;5801;50.804;12.638;2023-04-21T12:07:34;3.95;;;3.15;;
11488;SDS011;5801;50.804;12.638;2023-04-21T12:10:01;5.22;;;2.72;;
11488;SDS011;5801;50.804;12.638;2023-04-21T12:12:32;3.92;;;2.35;;
11488;SDS011;5801;50.804;12.638;2023-04-21T12:15:01;11.55;;;3.17;;
11488;SDS011;5801;50.804;12.638;2023-04-21T12:17:33;3.53;;;2.95;;
11488;SDS011;5801;50.804;12.638;2023-04-21T12:20:03;4.60;;;2.85;;
11488;SDS011;5801;50.804;12.638;2023-04-21T12:22:32;3.65;;;2.95;;
11488;SDS011;5801;50.804;12.638;2023-04-21T12:24:58;7.47;;;3.08;;
11488;SDS011;5801;50.804;12.638;2023-04-21T12:27:25;4.28;;;3.20;;
11488;SDS011;5801;50.804;12.638;2023-04-21T12:29:51;3.05;;;2.75;;
11488;SDS011;5801;50.804;12.638;2023-04-21T12:32:17;5.03;;;3.40;;
11488;SDS011;5801;50.804;12.638;2023-04-21T12:34:42;4.97;;;3.17;;
11488;SDS011;5801;50.804;12.638;2023-04-21T12:37:08;5.55;;;3.08;;
11488;SDS011;5801;50.804;12.638;2023-04-21T12:39:34;4.90;;;3.50;;
11488;SDS011;5801;50.804;12.638;2023-04-21T12:42:00;5.13;;;2.80;;
11488;SDS011;5801;50.804;12.638;2023-04-21T12:44:26;3.63;;;2.67;;
11488;SDS011;5801;50.804;12.638;2023-04-21T12:46:52;3.88;;;2.53;;
11488;SDS011;5801;50.804;12.638;2023-04-21T12:49:18;4.78;;;2.60;;
11488;SDS011;5801;50.804;12.638;2023-04-21T12:51:44;6.32;;;2.50;;
11488;SDS011;5801;50.804;12.638;2023-04-21T12:54:11;4.43;;;2.90;;
11488;SDS011;5801;50.804;12.638;2023-04-21T12:56:37;7.18;;;2.47;;
11488;SDS011;5801;50.804;12.638;2023-04-21T12:59:04;2.47;;;2.20;;
11488;SDS011;5801;50.804;12.638;2023-04-21T13:01:30;2.85;;;2.55;;
11488;SDS011;5801;50.804;12.638;2023-04-21T13:03:57;4.30;;;2.35;;
11488;SDS011;5801;50.804;12.638;2023-04-21T13:06:22;5.75;;;2.45;;
11488;SDS011;5801;50.804;12.638;2023-04-21T13:08:48;6.75;;;2.85;;
11488;SDS011;5801;50.804;12.638;2023-04-21T13:11:14;3.65;;;2.50;;
11488;SDS011;5801;50.804;12.638;2023-04-21T13:13:40;3.75;;;2.60;;
11488;SDS011;5801;50.804;12.638;2023-04-21T13:16:06;3.17;;;2.22;;
11488;SDS011;5801;50.804;12.638;2023-04-21T13:18:32;2.50;;;2.00;;
11488;SDS011;5801;50.804;12.638;2023-04-21T13:21:02;2.47;;;2.10;;
11488;SDS011;5801;50.804;12.638;2023-04-21T13:23:28;3.42;;;2.33;;
11488;SDS011;5801;50.804;12.638;2023-04-21T13:25:54;13.25;;;2.47;;
11488;SDS011;5801;50.804;12.638;2023-04-21T13:28:20;3.65;;;2.35;;
11488;SDS011;5801;50.804;12.638;2023-04-21T13:30:46;5.63;;;2.35;;
11488;SDS011;5801;50.804;12.638;2023-04-21T13:33:12;2.85;;;2.00;;
11488;SDS011;5801;50.804;12.638;2023-04-21T13:35:37;2.75;;;2.13;;
11488;SDS011;5801;50.804;12.638;2023-04-21T13:38:03;6.50;;;2.90;;
11488;SDS011;5801;50.804;12.638;2023-04-21T13:40:30;6.75;;;2.70;;
11488;SDS011;5801;50.804;12.638;2023-04-21T13:42:56;4.63;;;2.35;;
11488;SDS011;5801;50.804;12.638;2023-04-21T13:45:23;3.42;;;2.33;;
11488;SDS011;5801;50.804;12.638;2023-04-21T13:47:50;5.57;;;2.80;;
11488;SDS011;5801;50.804;12.638;2023-04-21T13:50:16;7.18;;;2.60;;
11488;SDS011;5801;50.804;12.638;2023-04-21T13:52:42;4.18;;;2.58;;
11488;SDS011;5801;50.804;12.638;2023-04-21T13:55:08;2.35;;;2.08;;
11488;SDS011;5801;50.804;12.638;2023-04-21T13:57:35;4.03;;;2.60;;
11488;SDS011;5801;50.804;12.638;2023-04-21T14:00:01;4.00;;;1.98;;
11488;SDS011;5801;50.804;12.638;2023-04-21T14:02:29;3.47;;;2.33;;
11488;SDS011;5801;50.804;12.638;2023-04-21T14:04:55;6.10;;;2.60;;
11488;SDS011;5801;50.804;12.638;2023-04-21T14:07:21;3.83;;;2.95;;
11488;SDS011;5801;50.804;12.638;2023-04-21T14:09:48;4.15;;;2.67;;
11488;SDS011;5801;50.804;12.638;2023-04-21T14:12:14;3.05;;;2.35;;
11488;SDS011;5801;50.804;12.638;2023-04-21T14:14:40;4.80;;;2.60;;
11488;SDS011;5801;50.804;12.638;2023-04-21T14:17:06;4.55;;;2.95;;
11488;SDS011;5801;50.804;12.638;2023-04-21T14:19:31;5.15;;;2.90;;
11488;SDS011;5801;50.804;12.638;2023-04-21T14:21:57;2.60;;;2.08;;
11488;SDS011;5801;50.804;12.638;2023-04-21T14:24:23;3.45;;;2.70;;
11488;SDS011;5801;50.804;12.638;2023-04-21T14:26:52;4.82;;;2.53;;
11488;SDS011;5801;50.804;12.638;2023-04-21T14:29:18;4.60;;;2.60;;
11488;SDS011;5801;50.804;12.638;2023-04-21T14:31:44;3.30;;;2.50;;
11488;SDS011;5801;50.804;12.638;2023-04-21T14:34:10;4.22;;;2.78;;
11488;SDS011;5801;50.804;12.638;2023-04-21T14:36:36;3.15;;;2.42;;
11488;SDS011;5801;50.804;12.638;2023-04-21T14:39:02;5.00;;;2.42;;
11488;SDS011;5801;50.804;12.638;2023-04-21T14:41:28;4.68;;;2.42;;
11488;SDS011;5801;50.804;12.638;2023-04-21T14:43:54;4.47;;;2.88;;
11488;SDS011;5801;50.804;12.638;2023-04-21T14:46:21;3.92;;;2.50;;